sensor_id;sensor_type;location;lat;lon;timestamp;P1;durP1;ratioP1;P2;durP2;ratioP2
43297;SDS011;28892;55.640;37.532;2022-09-09T00:00:53;2.38;;;1.60;;
43297;SDS011;28892;55.640;37.532;2022-09-09T00:03:27;2.63;;;1.40;;
43297;SDS011;28892;55.640;37.532;2022-09-09T00:06:08;2.58;;;1.77;;
43297;SDS011;28892;55.640;37.532;2022-09-09T00:11:05;2.20;;;1.48;;
43297;SDS011;28892;55.640;37.532;2022-09-09T00:13:34;2.63;;;1.50;;
43297;SDS011;28892;55.640;37.532;2022-09-09T00:21:32;3.67;;;1.65;;
43297;SDS011;28892;55.640;37.532;2022-09-09T00:24:00;3.08;;;1.75;;
43297;SDS011;28892;55.640;37.532;2022-09-09T00:26:38;3.85;;;1.83;;
43297;SDS011;28892;55.640;37.532;2022-09-09T00:31:59;2.42;;;1.70;;
43297;SDS011;28892;55.640;37.532;2022-09-09T00:34:36;2.38;;;1.48;;
43297;SDS011;28892;55.640;37.532;2022-09-09T00:37:10;2.38;;;1.80;;
43297;SDS011;28892;55.640;37.532;2022-09-09T00:39:42;2.08;;;1.50;;
43297;SDS011;28892;55.640;37.532;2022-09-09T00:42:21;3.55;;;2.10;;
43297;SDS011;28892;55.640;37.532;2022-09-09T00:45:02;2.30;;;1.80;;
43297;SDS011;28892;55.640;37.532;2022-09-09T00:48:09;2.55;;;1.90;;
43297;SDS011;28892;55.640;37.532;2022-09-09T00:50:51;7.85;;;1.95;;
43297;SDS011;28892;55.640;37.532;2022-09-09T00:56:09;3.42;;;1.90;;
43297;SDS011;28892;55.640;37.532;2022-09-09T00:58:40;3.15;;;2.03;;
43297;SDS011;28892;55.640;37.532;2022-09-09T01:01:09;4.40;;;2.05;;
43297;SDS011;28892;55.640;37.532;2022-09-09T01:03:38;2.65;;;1.80;;
43297;SDS011;28892;55.640;37.532;2022-09-09T01:06:21;2.20;;;1.80;;
43297;SDS011;28892;55.640;37.532;2022-09-09T01:09:12;3.45;;;2.30;;
43297;SDS011;28892;55.640;37.532;2022-09-09T01:14:47;3.85;;;2.13;;
43297;SDS011;28892;55.640;37.532;2022-09-09T01:25:56;3.95;;;2.40;;
43297;SDS011;28892;55.640;37.532;2022-09-09T01:28:33;2.15;;;1.95;;
43297;SDS011;28892;55.640;37.532;2022-09-09T01:31:06;3.53;;;2.40;;
43297;SDS011;28892;55.640;37.532;2022-09-09T01:33:41;2.80;;;2.30;;
43297;SDS011;28892;55.640;37.532;2022-09-09T01:38:49;4.57;;;2.55;;
43297;SDS011;28892;55.640;37.532;2022-09-09T01:41:16;2.70;;;2.20;;
43297;SDS011;28892;55.640;37.532;2022-09-09T01:43:57;2.55;;;2.30;;
43297;SDS011;28892;55.640;37.532;2022-09-09T01:46:25;5.25;;;2.58;;
43297;SDS011;28892;55.640;37.532;2022-09-09T01:48:54;3.92;;;2.40;;
43297;SDS011;28892;55.640;37.532;2022-09-09T01:51:20;3.15;;;2.33;;
43297;SDS011;28892;55.640;37.532;2022-09-09T01:53:47;3.42;;;2.00;;
43297;SDS011;28892;55.640;37.532;2022-09-09T02:07:14;4.10;;;2.40;;
43297;SDS011;28892;55.640;37.532;2022-09-09T02:10:28;4.68;;;2.15;;
43297;SDS011;28892;55.640;37.532;2022-09-09T02:13:10;3.45;;;2.22;;
43297;SDS011;28892;55.640;37.532;2022-09-09T02:15:48;4.05;;;2.40;;
43297;SDS011;28892;55.640;37.532;2022-09-09T02:21:50;4.72;;;2.60;;
43297;SDS011;28892;55.640;37.532;2022-09-09T02:24:18;3.83;;;2.50;;
43297;SDS011;28892;55.640;37.532;2022-09-09T02:26:53;5.03;;;2.58;;
43297;SDS011;28892;55.640;37.532;2022-09-09T02:29:31;3.83;;;2.45;;
43297;SDS011;28892;55.640;37.532;2022-09-09T02:32:01;3.95;;;2.55;;
43297;SDS011;28892;55.640;37.532;2022-09-09T02:34:35;8.02;;;3.00;;
43297;SDS011;28892;55.640;37.532;2022-09-09T02:37:06;5.57;;;2.60;;
43297;SDS011;28892;55.640;37.532;2022-09-09T02:39:35;3.95;;;2.60;;
43297;SDS011;28892;55.640;37.532;2022-09-09T02:42:04;4.93;;;2.65;;
43297;SDS011;28892;55.640;37.532;2022-09-09T02:44:31;3.78;;;2.60;;
43297;SDS011;28892;55.640;37.532;2022-09-09T02:52:27;6.97;;;2.60;;
43297;SDS011;28892;55.640;37.532;2022-09-09T02:55:12;3.22;;;2.92;;
43297;SDS011;28892;55.640;37.532;2022-09-09T02:57:45;3.63;;;2.63;;
43297;SDS011;28892;55.640;37.532;2022-09-09T03:00:15;4.78;;;2.70;;
43297;SDS011;28892;55.640;37.532;2022-09-09T03:02:41;3.45;;;2.63;;
43297;SDS011;28892;55.640;37.532;2022-09-09T03:05:07;5.60;;;2.78;;
43297;SDS011;28892;55.640;37.532;2022-09-09T03:07:33;3.83;;;2.65;;
43297;SDS011;28892;55.640;37.532;2022-09-09T03:09:59;5.32;;;2.70;;
43297;SDS011;28892;55.640;37.532;2022-09-09T03:12:28;4.03;;;2.72;;
43297;SDS011;28892;55.640;37.532;2022-09-09T03:14:54;7.50;;;2.90;;
43297;SDS011;28892;55.640;37.532;2022-09-09T03:17:20;3.97;;;2.83;;
43297;SDS011;28892;55.640;37.532;2022-09-09T03:19:51;4.95;;;2.70;;
43297;SDS011;28892;55.640;37.532;2022-09-09T03:22:20;2.65;;;2.38;;
43297;SDS011;28892;55.640;37.532;2022-09-09T03:24:46;5.45;;;2.60;;
43297;SDS011;28892;55.640;37.532;2022-09-09T03:27:12;3.97;;;2.70;;
43297;SDS011;28892;55.640;37.532;2022-09-09T03:29:40;4.22;;;3.15;;
43297;SDS011;28892;55.640;37.532;2022-09-09T03:32:09;4.35;;;2.65;;
43297;SDS011;28892;55.640;37.532;2022-09-09T03:34:39;3.13;;;2.28;;
43297;SDS011;28892;55.640;37.532;2022-09-09T03:37:08;3.72;;;2.85;;
43297;SDS011;28892;55.640;37.532;2022-09-09T03:39:35;4.03;;;2.72;;
43297;SDS011;28892;55.640;37.532;2022-09-09T03:42:00;3.38;;;2.83;;
43297;SDS011;28892;55.640;37.532;2022-09-09T03:44:30;4.72;;;3.10;;
43297;SDS011;28892;55.640;37.532;2022-09-09T03:46:56;5.38;;;3.30;;
43297;SDS011;28892;55.640;37.532;2022-09-09T03:49:22;4.97;;;2.90;;
43297;SDS011;28892;55.640;37.532;2022-09-09T03:51:49;5.60;;;3.20;;
43297;SDS011;28892;55.640;37.532;2022-09-09T03:54:14;5.65;;;2.88;;
43297;SDS011;28892;55.640;37.532;2022-09-09T03:56:40;2.90;;;2.50;;
43297;SDS011;28892;55.640;37.532;2022-09-09T03:59:07;3.50;;;2.50;;
43297;SDS011;28892;55.640;37.532;2022-09-09T04:01:34;5.00;;;2.78;;
43297;SDS011;28892;55.640;37.532;2022-09-09T04:04:00;3.72;;;2.80;;
43297;SDS011;28892;55.640;37.532;2022-09-09T04:06:27;4.60;;;2.65;;
43297;SDS011;28892;55.640;37.532;2022-09-09T04:08:55;4.28;;;3.30;;
43297;SDS011;28892;55.640;37.532;2022-09-09T04:11:21;4.13;;;2.75;;
43297;SDS011;28892;55.640;37.532;2022-09-09T04:13:50;4.47;;;3.28;;
43297;SDS011;28892;55.640;37.532;2022-09-09T04:16:17;4.35;;;3.08;;
43297;SDS011;28892;55.640;37.532;2022-09-09T04:18:43;4.85;;;2.90;;
43297;SDS011;28892;55.640;37.532;2022-09-09T04:21:09;3.17;;;2.70;;
43297;SDS011;28892;55.640;37.532;2022-09-09T04:23:38;3.15;;;2.42;;
43297;SDS011;28892;55.640;37.532;2022-09-09T04:26:04;5.07;;;2.80;;
43297;SDS011;28892;55.640;37.532;2022-09-09T04:28:33;5.30;;;2.90;;
43297;SDS011;28892;55.640;37.532;2022-09-09T04:31:09;3.75;;;3.10;;
43297;SDS011;28892;55.640;37.532;2022-09-09T04:33:39;4.13;;;2.70;;
43297;SDS011;28892;55.640;37.532;2022-09-09T04:36:05;6.03;;;2.90;;
43297;SDS011;28892;55.640;37.532;2022-09-09T04:38:32;3.03;;;2.70;;
43297;SDS011;28892;55.640;37.532;2022-09-09T04:40:58;3.40;;;3.08;;
43297;SDS011;28892;55.640;37.532;2022-09-09T04:43:24;4.63;;;2.50;;
43297;SDS011;28892;55.640;37.532;2022-09-09T04:45:51;3.85;;;2.47;;
43297;SDS011;28892;55.640;37.532;2022-09-09T04:48:19;4.60;;;2.35;;
43297;SDS011;28892;55.640;37.532;2022-09-09T04:50:57;4.68;;;2.50;;
43297;SDS011;28892;55.640;37.532;2022-09-09T04:53:25;4.53;;;2.72;;
43297;SDS011;28892;55.640;37.532;2022-09-09T04:55:53;3.75;;;2.45;;
43297;SDS011;28892;55.640;37.532;2022-09-09T04:58:27;6.38;;;2.63;;
43297;SDS011;28892;55.640;37.532;2022-09-09T05:00:53;3.20;;;2.88;;
43297;SDS011;28892;55.640;37.532;2022-09-09T05:03:20;5.32;;;2.60;;
43297;SDS011;28892;55.640;37.532;2022-09-09T05:05:46;3.20;;;2.75;;
43297;SDS011;28892;55.640;37.532;2022-09-09T05:08:12;8.95;;;3.15;;
43297;SDS011;28892;55.640;37.532;2022-09-09T05:10:38;3.90;;;2.70;;
43297;SDS011;28892;55.640;37.532;2022-09-09T05:13:05;3.65;;;2.75;;
43297;SDS011;28892;55.640;37.532;2022-09-09T05:15:32;5.72;;;2.40;;
43297;SDS011;28892;55.640;37.532;2022-09-09T05:17:58;4.90;;;2.72;;
43297;SDS011;28892;55.640;37.532;2022-09-09T05:20:26;3.30;;;2.30;;
43297;SDS011;28892;55.640;37.532;2022-09-09T05:22:53;2.55;;;2.22;;
43297;SDS011;28892;55.640;37.532;2022-09-09T05:25:20;3.92;;;2.90;;
43297;SDS011;28892;55.640;37.532;2022-09-09T05:27:47;4.88;;;2.78;;
43297;SDS011;28892;55.640;37.532;2022-09-09T05:30:14;3.47;;;2.10;;
43297;SDS011;28892;55.640;37.532;2022-09-09T05:32:40;8.13;;;2.30;;
43297;SDS011;28892;55.640;37.532;2022-09-09T05:35:06;3.83;;;1.90;;
43297;SDS011;28892;55.640;37.532;2022-09-09T05:37:35;5.05;;;1.77;;
43297;SDS011;28892;55.640;37.532;2022-09-09T05:40:08;4.05;;;2.00;;
43297;SDS011;28892;55.640;37.532;2022-09-09T05:42:36;2.20;;;2.00;;
43297;SDS011;28892;55.640;37.532;2022-09-09T05:45:03;4.53;;;1.77;;
43297;SDS011;28892;55.640;37.532;2022-09-09T05:47:28;5.65;;;2.20;;
43297;SDS011;28892;55.640;37.532;2022-09-09T05:49:55;5.10;;;2.40;;
43297;SDS011;28892;55.640;37.532;2022-09-09T05:52:21;3.35;;;2.30;;
43297;SDS011;28892;55.640;37.532;2022-09-09T05:54:47;4.72;;;2.20;;
43297;SDS011;28892;55.640;37.532;2022-09-09T05:57:13;3.17;;;1.95;;
43297;SDS011;28892;55.640;37.532;2022-09-09T05:59:39;5.07;;;2.20;;
43297;SDS011;28892;55.640;37.532;2022-09-09T06:02:05;3.78;;;2.60;;
43297;SDS011;28892;55.640;37.532;2022-09-09T06:04:35;3.60;;;2.22;;
43297;SDS011;28892;55.640;37.532;2022-09-09T06:07:02;4.05;;;2.35;;
43297;SDS011;28892;55.640;37.532;2022-09-09T06:09:28;2.22;;;1.60;;
43297;SDS011;28892;55.640;37.532;2022-09-09T06:11:55;1.65;;;1.40;;
43297;SDS011;28892;55.640;37.532;2022-09-09T06:14:23;1.75;;;1.38;;
43297;SDS011;28892;55.640;37.532;2022-09-09T06:16:51;7.70;;;1.95;;
43297;SDS011;28892;55.640;37.532;2022-09-09T06:19:20;4.47;;;1.65;;
43297;SDS011;28892;55.640;37.532;2022-09-09T06:21:50;4.03;;;2.10;;
43297;SDS011;28892;55.640;37.532;2022-09-09T06:24:25;1.73;;;1.27;;
43297;SDS011;28892;55.640;37.532;2022-09-09T06:26:51;1.63;;;1.48;;
43297;SDS011;28892;55.640;37.532;2022-09-09T06:29:21;1.88;;;1.20;;
43297;SDS011;28892;55.640;37.532;2022-09-09T06:31:47;2.40;;;1.30;;
43297;SDS011;28892;55.640;37.532;2022-09-09T06:34:19;5.90;;;1.70;;
43297;SDS011;28892;55.640;37.532;2022-09-09T06:36:49;4.85;;;1.75;;
43297;SDS011;28892;55.640;37.532;2022-09-09T06:39:15;2.85;;;2.03;;
43297;SDS011;28892;55.640;37.532;2022-09-09T06:41:41;4.65;;;1.45;;
43297;SDS011;28892;55.640;37.532;2022-09-09T06:44:17;4.28;;;1.98;;
43297;SDS011;28892;55.640;37.532;2022-09-09T06:46:44;2.55;;;1.20;;
43297;SDS011;28892;55.640;37.532;2022-09-09T06:49:13;3.97;;;1.88;;
43297;SDS011;28892;55.640;37.532;2022-09-09T06:51:40;2.38;;;1.40;;
43297;SDS011;28892;55.640;37.532;2022-09-09T06:54:11;6.40;;;1.88;;
43297;SDS011;28892;55.640;37.532;2022-09-09T06:56:38;6.53;;;2.30;;
43297;SDS011;28892;55.640;37.532;2022-09-09T06:59:15;9.98;;;1.73;;
43297;SDS011;28892;55.640;37.532;2022-09-09T07:01:41;2.42;;;1.30;;
43297;SDS011;28892;55.640;37.532;2022-09-09T07:04:13;2.37;;;1.17;;
43297;SDS011;28892;55.640;37.532;2022-09-09T07:06:41;4.38;;;1.55;;
43297;SDS011;28892;55.640;37.532;2022-09-09T07:09:15;4.07;;;1.42;;
43297;SDS011;28892;55.640;37.532;2022-09-09T07:14:13;3.60;;;1.77;;
43297;SDS011;28892;55.640;37.532;2022-09-09T07:16:41;1.42;;;1.10;;
43297;SDS011;28892;55.640;37.532;2022-09-09T07:19:09;2.03;;;1.30;;
43297;SDS011;28892;55.640;37.532;2022-09-09T07:21:35;9.73;;;2.40;;
43297;SDS011;28892;55.640;37.532;2022-09-09T07:24:01;3.05;;;1.55;;
43297;SDS011;28892;55.640;37.532;2022-09-09T07:26:28;2.17;;;1.20;;
43297;SDS011;28892;55.640;37.532;2022-09-09T07:28:57;1.75;;;1.30;;
43297;SDS011;28892;55.640;37.532;2022-09-09T07:33:52;2.22;;;1.35;;
43297;SDS011;28892;55.640;37.532;2022-09-09T07:36:23;2.58;;;1.42;;
43297;SDS011;28892;55.640;37.532;2022-09-09T07:38:53;4.38;;;2.00;;
43297;SDS011;28892;55.640;37.532;2022-09-09T07:41:25;2.10;;;1.50;;
43297;SDS011;28892;55.640;37.532;2022-09-09T07:43:53;1.00;;;1.00;;
43297;SDS011;28892;55.640;37.532;2022-09-09T07:46:21;4.25;;;1.30;;
43297;SDS011;28892;55.640;37.532;2022-09-09T07:48:50;1.80;;;1.17;;
43297;SDS011;28892;55.640;37.532;2022-09-09T07:51:20;1.98;;;1.55;;
43297;SDS011;28892;55.640;37.532;2022-09-09T07:53:53;2.50;;;1.55;;
43297;SDS011;28892;55.640;37.532;2022-09-09T07:56:22;1.70;;;1.60;;
43297;SDS011;28892;55.640;37.532;2022-09-09T07:58:50;3.65;;;1.73;;
43297;SDS011;28892;55.640;37.532;2022-09-09T08:01:19;2.13;;;1.40;;
43297;SDS011;28892;55.640;37.532;2022-09-09T08:03:52;4.80;;;2.10;;
43297;SDS011;28892;55.640;37.532;2022-09-09T08:06:19;1.55;;;1.30;;
43297;SDS011;28892;55.640;37.532;2022-09-09T08:08:49;3.92;;;3.15;;
43297;SDS011;28892;55.640;37.532;2022-09-09T08:11:16;4.65;;;1.60;;
43297;SDS011;28892;55.640;37.532;2022-09-09T08:13:43;3.05;;;1.50;;
43297;SDS011;28892;55.640;37.532;2022-09-09T08:18:42;1.58;;;1.45;;
43297;SDS011;28892;55.640;37.532;2022-09-09T08:21:09;3.05;;;1.60;;
43297;SDS011;28892;55.640;37.532;2022-09-09T08:23:41;5.53;;;3.42;;
43297;SDS011;28892;55.640;37.532;2022-09-09T08:26:10;2.70;;;1.80;;
43297;SDS011;28892;55.640;37.532;2022-09-09T08:28:37;3.65;;;2.25;;
43297;SDS011;28892;55.640;37.532;2022-09-09T08:31:05;5.78;;;2.55;;
43297;SDS011;28892;55.640;37.532;2022-09-09T08:33:43;3.40;;;1.38;;
43297;SDS011;28892;55.640;37.532;2022-09-09T08:36:12;3.22;;;2.30;;
43297;SDS011;28892;55.640;37.532;2022-09-09T08:38:50;4.47;;;2.00;;
43297;SDS011;28892;55.640;37.532;2022-09-09T08:58:15;1.35;;;1.17;;
43297;SDS011;28892;55.640;37.532;2022-09-09T09:01:02;2.85;;;1.73;;
43297;SDS011;28892;55.640;37.532;2022-09-09T09:06:30;2.95;;;1.90;;
43297;SDS011;28892;55.640;37.532;2022-09-09T09:09:21;9.52;;;3.30;;
43297;SDS011;28892;55.640;37.532;2022-09-09T09:12:08;6.03;;;2.67;;
43297;SDS011;28892;55.640;37.532;2022-09-09T09:14:41;3.80;;;1.33;;
43297;SDS011;28892;55.640;37.532;2022-09-09T09:17:18;3.40;;;1.70;;
43297;SDS011;28892;55.640;37.532;2022-09-09T09:19:47;4.30;;;1.70;;
43297;SDS011;28892;55.640;37.532;2022-09-09T09:22:49;3.13;;;1.80;;
43297;SDS011;28892;55.640;37.532;2022-09-09T09:25:19;8.77;;;1.70;;
43297;SDS011;28892;55.640;37.532;2022-09-09T09:27:58;6.72;;;1.67;;
43297;SDS011;28892;55.640;37.532;2022-09-09T09:30:38;4.72;;;1.42;;
43297;SDS011;28892;55.640;37.532;2022-09-09T09:33:17;3.38;;;1.70;;
43297;SDS011;28892;55.640;37.532;2022-09-09T09:35:45;3.75;;;2.13;;
43297;SDS011;28892;55.640;37.532;2022-09-09T09:38:18;3.60;;;1.50;;
43297;SDS011;28892;55.640;37.532;2022-09-09T09:40:52;2.95;;;1.73;;
43297;SDS011;28892;55.640;37.532;2022-09-09T09:43:28;5.60;;;2.20;;
43297;SDS011;28892;55.640;37.532;2022-09-09T09:45:56;2.13;;;1.25;;
43297;SDS011;28892;55.640;37.532;2022-09-09T09:48:24;2.83;;;1.95;;
43297;SDS011;28892;55.640;37.532;2022-09-09T09:50:55;2.78;;;1.23;;
43297;SDS011;28892;55.640;37.532;2022-09-09T09:53:30;5.20;;;2.30;;
43297;SDS011;28892;55.640;37.532;2022-09-09T09:58:33;2.85;;;1.52;;
43297;SDS011;28892;55.640;37.532;2022-09-09T10:01:19;8.07;;;2.00;;
43297;SDS011;28892;55.640;37.532;2022-09-09T10:03:50;6.82;;;1.60;;
43297;SDS011;28892;55.640;37.532;2022-09-09T10:06:17;12.35;;;2.33;;
43297;SDS011;28892;55.640;37.532;2022-09-09T10:08:45;2.97;;;1.35;;
43297;SDS011;28892;55.640;37.532;2022-09-09T10:16:25;3.95;;;1.63;;
43297;SDS011;28892;55.640;37.532;2022-09-09T10:19:15;2.55;;;1.65;;
43297;SDS011;28892;55.640;37.532;2022-09-09T10:24:43;2.40;;;1.58;;
43297;SDS011;28892;55.640;37.532;2022-09-09T10:46:46;2.20;;;1.65;;
43297;SDS011;28892;55.640;37.532;2022-09-09T10:49:47;2.63;;;1.83;;
43297;SDS011;28892;55.640;37.532;2022-09-09T10:52:28;4.60;;;2.03;;
43297;SDS011;28892;55.640;37.532;2022-09-09T10:57:45;1.30;;;1.20;;
43297;SDS011;28892;55.640;37.532;2022-09-09T11:00:23;1.92;;;1.08;;
43297;SDS011;28892;55.640;37.532;2022-09-09T11:02:58;1.90;;;1.30;;
43297;SDS011;28892;55.640;37.532;2022-09-09T11:05:28;2.17;;;1.98;;
43297;SDS011;28892;55.640;37.532;2022-09-09T11:08:06;2.67;;;2.22;;
43297;SDS011;28892;55.640;37.532;2022-09-09T11:13:35;1.98;;;1.30;;
43297;SDS011;28892;55.640;37.532;2022-09-09T11:18:39;5.10;;;2.50;;
43297;SDS011;28892;55.640;37.532;2022-09-09T11:21:08;3.63;;;2.20;;
43297;SDS011;28892;55.640;37.532;2022-09-09T11:23:44;3.63;;;2.30;;
43297;SDS011;28892;55.640;37.532;2022-09-09T11:26:17;4.40;;;2.40;;
43297;SDS011;28892;55.640;37.532;2022-09-09T11:32:17;11.52;;;3.50;;
43297;SDS011;28892;55.640;37.532;2022-09-09T11:37:23;3.30;;;1.48;;
43297;SDS011;28892;55.640;37.532;2022-09-09T11:40:24;4.43;;;1.70;;
43297;SDS011;28892;55.640;37.532;2022-09-09T11:45:39;3.08;;;1.50;;
43297;SDS011;28892;55.640;37.532;2022-09-09T11:48:21;2.90;;;1.40;;
43297;SDS011;28892;55.640;37.532;2022-09-09T11:51:02;2.40;;;1.38;;
43297;SDS011;28892;55.640;37.532;2022-09-09T11:53:33;2.58;;;1.30;;
43297;SDS011;28892;55.640;37.532;2022-09-09T11:58:29;15.55;;;2.10;;
43297;SDS011;28892;55.640;37.532;2022-09-09T12:01:01;3.35;;;1.20;;
43297;SDS011;28892;55.640;37.532;2022-09-09T12:03:48;2.42;;;1.50;;
43297;SDS011;28892;55.640;37.532;2022-09-09T12:06:28;3.63;;;2.00;;
43297;SDS011;28892;55.640;37.532;2022-09-09T12:09:08;5.28;;;2.70;;
43297;SDS011;28892;55.640;37.532;2022-09-09T12:11:48;4.47;;;2.72;;
43297;SDS011;28892;55.640;37.532;2022-09-09T12:14:37;3.38;;;2.00;;
43297;SDS011;28892;55.640;37.532;2022-09-09T12:17:24;2.20;;;1.30;;
43297;SDS011;28892;55.640;37.532;2022-09-09T12:20:09;2.47;;;1.17;;
43297;SDS011;28892;55.640;37.532;2022-09-09T12:25:41;5.10;;;1.42;;
43297;SDS011;28892;55.640;37.532;2022-09-09T12:28:19;3.88;;;1.20;;
43297;SDS011;28892;55.640;37.532;2022-09-09T12:33:35;5.43;;;1.23;;
43297;SDS011;28892;55.640;37.532;2022-09-09T12:36:04;5.68;;;1.60;;
43297;SDS011;28892;55.640;37.532;2022-09-09T12:38:38;2.03;;;1.73;;
43297;SDS011;28892;55.640;37.532;2022-09-09T12:41:05;3.60;;;1.65;;
43297;SDS011;28892;55.640;37.532;2022-09-09T12:43:31;5.07;;;1.90;;
43297;SDS011;28892;55.640;37.532;2022-09-09T12:45:58;3.10;;;1.95;;
43297;SDS011;28892;55.640;37.532;2022-09-09T12:48:31;3.60;;;1.98;;
43297;SDS011;28892;55.640;37.532;2022-09-09T12:51:05;5.55;;;1.70;;
43297;SDS011;28892;55.640;37.532;2022-09-09T12:53:42;1.70;;;1.50;;
43297;SDS011;28892;55.640;37.532;2022-09-09T12:56:18;4.05;;;1.60;;
43297;SDS011;28892;55.640;37.532;2022-09-09T12:58:47;3.22;;;1.50;;
43297;SDS011;28892;55.640;37.532;2022-09-09T13:01:27;1.55;;;1.35;;
43297;SDS011;28892;55.640;37.532;2022-09-09T13:03:54;2.30;;;1.25;;
43297;SDS011;28892;55.640;37.532;2022-09-09T13:06:22;5.43;;;1.25;;
43297;SDS011;28892;55.640;37.532;2022-09-09T13:08:51;3.22;;;1.40;;
43297;SDS011;28892;55.640;37.532;2022-09-09T13:11:23;2.75;;;1.85;;
43297;SDS011;28892;55.640;37.532;2022-09-09T13:13:56;3.17;;;1.70;;
43297;SDS011;28892;55.640;37.532;2022-09-09T13:21:33;3.13;;;1.70;;
43297;SDS011;28892;55.640;37.532;2022-09-09T13:24:00;3.08;;;1.40;;
43297;SDS011;28892;55.640;37.532;2022-09-09T13:26:29;4.72;;;1.20;;
43297;SDS011;28892;55.640;37.532;2022-09-09T13:29:06;1.52;;;1.40;;
43297;SDS011;28892;55.640;37.532;2022-09-09T13:31:42;3.13;;;1.30;;
43297;SDS011;28892;55.640;37.532;2022-09-09T13:34:22;3.40;;;1.30;;
43297;SDS011;28892;55.640;37.532;2022-09-09T13:36:59;2.47;;;1.60;;
43297;SDS011;28892;55.640;37.532;2022-09-09T13:39:32;2.08;;;1.88;;
43297;SDS011;28892;55.640;37.532;2022-09-09T13:42:01;4.80;;;2.83;;
43297;SDS011;28892;55.640;37.532;2022-09-09T13:44:29;2.75;;;2.13;;
43297;SDS011;28892;55.640;37.532;2022-09-09T13:47:06;3.83;;;2.55;;
43297;SDS011;28892;55.640;37.532;2022-09-09T13:49:47;4.53;;;1.80;;
43297;SDS011;28892;55.640;37.532;2022-09-09T13:52:14;4.22;;;1.38;;
43297;SDS011;28892;55.640;37.532;2022-09-09T13:54:50;1.45;;;1.35;;
43297;SDS011;28892;55.640;37.532;2022-09-09T13:57:21;4.25;;;1.33;;
43297;SDS011;28892;55.640;37.532;2022-09-09T13:59:51;1.40;;;1.00;;
43297;SDS011;28892;55.640;37.532;2022-09-09T14:02:20;2.03;;;1.42;;
43297;SDS011;28892;55.640;37.532;2022-09-09T14:04:48;2.60;;;1.50;;
43297;SDS011;28892;55.640;37.532;2022-09-09T14:07:16;1.90;;;1.50;;
43297;SDS011;28892;55.640;37.532;2022-09-09T14:09:44;2.58;;;1.83;;
43297;SDS011;28892;55.640;37.532;2022-09-09T14:12:15;1.35;;;1.20;;
43297;SDS011;28892;55.640;37.532;2022-09-09T14:14:41;1.35;;;1.20;;
43297;SDS011;28892;55.640;37.532;2022-09-09T14:17:08;2.28;;;1.27;;
43297;SDS011;28892;55.640;37.532;2022-09-09T14:19:34;2.92;;;2.25;;
43297;SDS011;28892;55.640;37.532;2022-09-09T14:22:00;4.60;;;1.40;;
43297;SDS011;28892;55.640;37.532;2022-09-09T14:24:26;5.32;;;2.28;;
43297;SDS011;28892;55.640;37.532;2022-09-09T14:26:53;2.38;;;1.90;;
43297;SDS011;28892;55.640;37.532;2022-09-09T14:29:19;2.25;;;1.88;;
43297;SDS011;28892;55.640;37.532;2022-09-09T14:31:45;2.90;;;1.48;;
43297;SDS011;28892;55.640;37.532;2022-09-09T14:34:11;4.40;;;3.10;;
43297;SDS011;28892;55.640;37.532;2022-09-09T14:36:37;4.93;;;3.10;;
43297;SDS011;28892;55.640;37.532;2022-09-09T14:39:03;5.35;;;2.60;;
43297;SDS011;28892;55.640;37.532;2022-09-09T14:41:29;3.75;;;2.10;;
43297;SDS011;28892;55.640;37.532;2022-09-09T14:43:55;4.03;;;1.88;;
43297;SDS011;28892;55.640;37.532;2022-09-09T14:46:21;3.40;;;2.03;;
43297;SDS011;28892;55.640;37.532;2022-09-09T14:48:47;2.28;;;1.90;;
43297;SDS011;28892;55.640;37.532;2022-09-09T14:51:20;4.45;;;2.10;;
43297;SDS011;28892;55.640;37.532;2022-09-09T14:53:47;5.38;;;2.90;;
43297;SDS011;28892;55.640;37.532;2022-09-09T14:56:16;2.63;;;2.20;;
43297;SDS011;28892;55.640;37.532;2022-09-09T14:58:47;3.47;;;2.08;;
43297;SDS011;28892;55.640;37.532;2022-09-09T15:01:14;4.55;;;2.80;;
43297;SDS011;28892;55.640;37.532;2022-09-09T15:03:41;5.78;;;2.00;;
43297;SDS011;28892;55.640;37.532;2022-09-09T15:06:13;2.75;;;2.10;;
43297;SDS011;28892;55.640;37.532;2022-09-09T15:08:41;3.72;;;2.10;;
43297;SDS011;28892;55.640;37.532;2022-09-09T15:11:08;2.47;;;2.10;;
43297;SDS011;28892;55.640;37.532;2022-09-09T15:13:35;4.10;;;2.08;;
43297;SDS011;28892;55.640;37.532;2022-09-09T15:16:03;4.40;;;3.08;;
43297;SDS011;28892;55.640;37.532;2022-09-09T15:18:31;4.90;;;3.22;;
43297;SDS011;28892;55.640;37.532;2022-09-09T15:21:00;5.28;;;2.67;;
43297;SDS011;28892;55.640;37.532;2022-09-09T15:23:28;4.30;;;2.50;;
43297;SDS011;28892;55.640;37.532;2022-09-09T15:25:56;3.78;;;2.30;;
43297;SDS011;28892;55.640;37.532;2022-09-09T15:28:22;3.70;;;2.70;;
43297;SDS011;28892;55.640;37.532;2022-09-09T15:30:49;3.70;;;1.75;;
43297;SDS011;28892;55.640;37.532;2022-09-09T15:33:17;2.22;;;1.80;;
43297;SDS011;28892;55.640;37.532;2022-09-09T15:35:43;4.70;;;2.65;;
43297;SDS011;28892;55.640;37.532;2022-09-09T15:38:09;5.05;;;3.60;;
43297;SDS011;28892;55.640;37.532;2022-09-09T15:40:35;4.60;;;1.92;;
43297;SDS011;28892;55.640;37.532;2022-09-09T15:43:01;3.72;;;1.85;;
43297;SDS011;28892;55.640;37.532;2022-09-09T15:45:28;4.53;;;2.33;;
43297;SDS011;28892;55.640;37.532;2022-09-09T15:47:57;5.85;;;3.10;;
43297;SDS011;28892;55.640;37.532;2022-09-09T15:50:23;4.07;;;2.70;;
43297;SDS011;28892;55.640;37.532;2022-09-09T15:52:48;6.57;;;3.10;;
43297;SDS011;28892;55.640;37.532;2022-09-09T15:55:14;4.28;;;2.00;;
43297;SDS011;28892;55.640;37.532;2022-09-09T15:57:40;2.72;;;2.10;;
43297;SDS011;28892;55.640;37.532;2022-09-09T16:00:06;4.65;;;2.10;;
43297;SDS011;28892;55.640;37.532;2022-09-09T16:02:32;4.00;;;2.10;;
43297;SDS011;28892;55.640;37.532;2022-09-09T16:04:58;2.45;;;1.90;;
43297;SDS011;28892;55.640;37.532;2022-09-09T16:07:23;4.13;;;2.30;;
43297;SDS011;28892;55.640;37.532;2022-09-09T16:09:49;2.92;;;2.22;;
43297;SDS011;28892;55.640;37.532;2022-09-09T16:12:18;3.40;;;2.42;;
43297;SDS011;28892;55.640;37.532;2022-09-09T16:14:44;2.75;;;2.00;;
43297;SDS011;28892;55.640;37.532;2022-09-09T16:17:10;3.30;;;2.88;;
43297;SDS011;28892;55.640;37.532;2022-09-09T16:19:36;7.28;;;3.10;;
43297;SDS011;28892;55.640;37.532;2022-09-09T16:22:02;4.43;;;2.47;;
43297;SDS011;28892;55.640;37.532;2022-09-09T16:24:29;4.28;;;2.25;;
43297;SDS011;28892;55.640;37.532;2022-09-09T16:26:55;3.25;;;2.38;;
43297;SDS011;28892;55.640;37.532;2022-09-09T16:29:21;3.83;;;2.33;;
43297;SDS011;28892;55.640;37.532;2022-09-09T16:31:48;3.47;;;2.30;;
43297;SDS011;28892;55.640;37.532;2022-09-09T16:34:15;4.10;;;2.45;;
43297;SDS011;28892;55.640;37.532;2022-09-09T16:36:43;3.05;;;2.10;;
43297;SDS011;28892;55.640;37.532;2022-09-09T16:39:10;5.00;;;2.30;;
43297;SDS011;28892;55.640;37.532;2022-09-09T16:41:37;2.47;;;2.03;;
43297;SDS011;28892;55.640;37.532;2022-09-09T16:44:06;4.80;;;2.20;;
43297;SDS011;28892;55.640;37.532;2022-09-09T16:46:35;4.18;;;2.28;;
43297;SDS011;28892;55.640;37.532;2022-09-09T16:49:04;4.72;;;2.65;;
43297;SDS011;28892;55.640;37.532;2022-09-09T16:51:38;5.07;;;2.58;;
43297;SDS011;28892;55.640;37.532;2022-09-09T16:54:06;3.60;;;2.80;;
43297;SDS011;28892;55.640;37.532;2022-09-09T16:56:33;4.30;;;2.65;;
43297;SDS011;28892;55.640;37.532;2022-09-09T16:59:06;6.38;;;2.90;;
43297;SDS011;28892;55.640;37.532;2022-09-09T17:01:34;5.25;;;2.55;;
43297;SDS011;28892;55.640;37.532;2022-09-09T17:04:07;4.47;;;2.70;;
43297;SDS011;28892;55.640;37.532;2022-09-09T17:06:36;7.43;;;3.85;;
43297;SDS011;28892;55.640;37.532;2022-09-09T17:09:04;4.25;;;2.90;;